createdAt,value
2018-09-03T00:02:15.751Z,51.80
2018-09-03T00:04:41.739Z,52.36
2018-09-03T00:07:07.707Z,51.68
2018-09-03T00:09:33.672Z,51.87
2018-09-03T00:11:59.620Z,51.48
2018-09-03T00:14:25.583Z,51.41
2018-09-03T00:16:51.536Z,52.28
2018-09-03T00:19:17.526Z,51.92
2018-09-03T00:21:43.561Z,51.55
2018-09-03T00:24:09.675Z,51.66
2018-09-03T00:26:35.643Z,52.12
2018-09-03T00:29:01.591Z,52.24
2018-09-03T00:31:27.569Z,52.23
2018-09-03T00:33:53.531Z,52.36
2018-09-03T00:36:19.514Z,52.47
2018-09-03T00:38:45.467Z,52.10
2018-09-03T00:41:11.420Z,51.95
2018-09-03T00:43:37.363Z,51.44
2018-09-03T00:46:03.353Z,51.49
2018-09-03T00:48:29.335Z,51.09
2018-09-03T00:50:55.301Z,51.81
2018-09-03T00:53:21.263Z,51.67
2018-09-03T00:55:47.217Z,51.33
2018-09-03T00:58:13.198Z,51.99
2018-09-03T01:00:39.148Z,52.05
2018-09-03T01:03:05.099Z,51.92
2018-09-03T01:05:31.055Z,51.34
2018-09-03T01:07:57.020Z,52.04
2018-09-03T01:10:22.964Z,52.24
2018-09-03T01:12:48.915Z,51.71
2018-09-03T01:15:15.148Z,51.86
2018-09-03T01:17:41.091Z,52.19
2018-09-03T01:20:07.054Z,51.85
2018-09-03T01:22:33.019Z,52.08
2018-09-03T01:24:58.966Z,51.64
2018-09-03T01:27:24.958Z,51.70
2018-09-03T01:29:50.953Z,52.24
2018-09-03T01:32:16.896Z,51.73
2018-09-03T01:34:42.884Z,52.07
2018-09-03T01:37:08.847Z,52.80
2018-09-03T01:39:34.809Z,52.54
2018-09-03T01:42:00.752Z,52.61
2018-09-03T01:44:26.911Z,52.36
2018-09-03T01:46:52.888Z,52.12
2018-09-03T01:49:18.836Z,51.83
2018-09-03T01:51:44.816Z,52.22
2018-09-03T01:54:10.748Z,52.71
2018-09-03T01:56:36.723Z,52.05
2018-09-03T01:59:02.668Z,52.29
2018-09-03T02:01:28.637Z,52.58
2018-09-03T02:03:54.715Z,52.22
2018-09-03T02:06:20.660Z,52.40
2018-09-03T02:08:46.612Z,52.20
2018-09-03T02:11:12.572Z,52.38
2018-09-03T02:13:38.540Z,52.83
2018-09-03T02:16:04.479Z,52.06
2018-09-03T02:18:30.427Z,53.36
2018-09-03T02:20:56.383Z,52.44
2018-09-03T02:23:22.383Z,52.99
2018-09-03T02:25:48.332Z,52.09
2018-09-03T02:28:14.299Z,52.26
2018-09-03T02:30:40.313Z,52.48
2018-09-03T02:33:06.266Z,53.35
2018-09-03T02:35:32.204Z,53.13
2018-09-03T02:37:58.160Z,52.34
2018-09-03T02:40:24.112Z,52.43
2018-09-03T02:42:50.071Z,52.38
2018-09-03T02:45:16.127Z,52.62
2018-09-03T02:47:42.077Z,52.42
2018-09-03T02:50:08.119Z,53.11
2018-09-03T02:52:34.097Z,53.40
2018-09-03T02:55:00.050Z,53.54
2018-09-03T02:57:26.016Z,53.41
2018-09-03T02:59:51.960Z,52.76
2018-09-03T03:02:17.928Z,52.13
2018-09-03T03:04:43.872Z,52.56
2018-09-03T03:07:09.864Z,53.24
2018-09-03T03:09:35.807Z,53.39
2018-09-03T03:12:01.752Z,53.09
2018-09-03T03:14:27.702Z,53.12
2018-09-03T03:16:53.739Z,52.62
2018-09-03T03:19:19.688Z,53.20
2018-09-03T03:21:45.648Z,53.40
2018-09-03T03:24:11.590Z,53.51
2018-09-03T03:26:37.544Z,53.61
2018-09-03T03:29:03.500Z,53.29
2018-09-03T03:31:29.469Z,53.15
2018-09-03T03:33:55.432Z,53.24
2018-09-03T03:36:21.392Z,52.97
2018-09-03T03:38:47.371Z,52.93
2018-09-03T03:41:13.312Z,54.01
2018-09-03T03:43:39.339Z,53.84
2018-09-03T03:46:05.332Z,53.72
2018-09-03T03:48:31.335Z,52.44
2018-09-03T03:50:57.236Z,53.29
2018-09-03T03:53:23.179Z,53.17
2018-09-03T03:55:49.131Z,53.27
2018-09-03T03:58:15.083Z,53.65
2018-09-03T04:00:41.085Z,52.84
2018-09-03T04:03:07.060Z,53.58
2018-09-03T04:05:33.001Z,52.93
2018-09-03T04:07:58.952Z,53.88
2018-09-03T04:10:24.940Z,52.91
2018-09-03T04:12:50.897Z,53.78
2018-09-03T04:15:16.858Z,53.18
2018-09-03T04:17:42.804Z,53.67
2018-09-03T04:20:08.771Z,53.59
2018-09-03T04:22:34.739Z,52.71
2018-09-03T04:25:00.696Z,52.87
2018-09-03T04:27:26.644Z,53.63
2018-09-03T04:29:52.599Z,52.50
2018-09-03T04:32:18.575Z,52.82
2018-09-03T04:34:44.524Z,53.97
2018-09-03T04:37:10.496Z,53.40
2018-09-03T04:39:36.452Z,53.64
2018-09-03T04:42:02.402Z,53.33
2018-09-03T04:44:28.352Z,52.70
2018-09-03T04:46:54.325Z,52.95
2018-09-03T04:49:20.270Z,53.51
2018-09-03T04:51:46.273Z,53.65
2018-09-03T04:54:12.211Z,54.10
2018-09-03T04:56:38.164Z,53.57
2018-09-03T04:59:04.184Z,53.70
2018-09-03T05:01:30.131Z,53.94
2018-09-03T05:03:56.099Z,53.19
2018-09-03T05:06:22.053Z,53.33
2018-09-03T05:08:48.159Z,54.08
2018-09-03T05:11:14.103Z,53.87
2018-09-03T05:13:40.073Z,54.04
2018-09-03T05:16:06.017Z,54.33
2018-09-03T05:18:31.972Z,54.19
2018-09-03T05:20:57.923Z,53.54
2018-09-03T05:23:24.183Z,54.08
2018-09-03T05:25:50.159Z,53.71
2018-09-03T05:28:16.117Z,53.43
2018-09-03T05:30:42.068Z,54.33
2018-09-03T05:33:08.033Z,54.44
2018-09-03T05:35:33.995Z,53.76
2018-09-03T05:37:59.950Z,53.82
2018-09-03T05:40:25.900Z,53.69
2018-09-03T05:42:51.865Z,53.77
2018-09-03T05:45:17.812Z,53.81
2018-09-03T05:47:43.762Z,54.14
2018-09-03T05:50:09.733Z,53.93
2018-09-03T05:52:35.643Z,53.88
2018-09-03T05:55:01.594Z,53.52
2018-09-03T05:57:27.576Z,54.02
2018-09-03T05:59:53.544Z,53.83
2018-09-03T06:02:19.506Z,53.51
2018-09-03T06:04:45.487Z,53.92
2018-09-03T06:07:11.508Z,54.75
2018-09-03T06:09:37.473Z,54.61
2018-09-03T06:12:03.408Z,53.31
2018-09-03T06:14:29.469Z,54.24
2018-09-03T06:16:55.491Z,53.57
2018-09-03T06:19:21.462Z,54.12
2018-09-03T06:21:47.407Z,54.34
2018-09-03T06:24:13.356Z,54.54
2018-09-03T06:26:39.372Z,54.12
2018-09-03T06:29:05.279Z,54.79
2018-09-03T06:31:31.228Z,54.25
2018-09-03T06:33:57.191Z,54.46
2018-09-03T06:36:23.131Z,54.20
2018-09-03T06:38:49.087Z,54.67
2018-09-03T06:41:15.039Z,54.08
2018-09-03T06:43:40.999Z,53.69
2018-09-03T06:46:06.947Z,53.73
2018-09-03T06:48:32.924Z,54.59
2018-09-03T06:50:58.870Z,53.69
2018-09-03T06:53:24.987Z,54.21
2018-09-03T06:55:50.900Z,53.81
2018-09-03T06:58:16.867Z,54.71
2018-09-03T07:00:42.817Z,54.76
2018-09-03T07:03:08.759Z,54.40
2018-09-03T07:05:34.724Z,54.93
2018-09-03T07:08:00.667Z,54.45
2018-09-03T07:10:26.640Z,54.75
2018-09-03T07:12:52.591Z,54.50
2018-09-03T07:15:18.532Z,54.38
2018-09-03T07:17:44.542Z,54.82
2018-09-03T07:20:10.460Z,54.09
2018-09-03T07:22:36.536Z,54.74
2018-09-03T07:25:02.567Z,54.90
2018-09-03T07:27:28.536Z,54.69
2018-09-03T07:29:54.491Z,54.38
2018-09-03T07:32:20.487Z,53.69
2018-09-03T07:34:46.443Z,53.94
2018-09-03T07:37:12.391Z,53.88
2018-09-03T07:39:38.341Z,54.05
2018-09-03T07:42:04.581Z,53.83
2018-09-03T07:44:30.540Z,54.27
2018-09-03T07:46:56.491Z,54.42
2018-09-03T07:49:22.471Z,54.14
2018-09-03T07:51:48.420Z,54.51
2018-09-03T07:54:14.371Z,54.96
2018-09-03T07:56:40.364Z,54.67
2018-09-03T07:59:06.424Z,54.31
2018-09-03T08:01:32.378Z,54.50
2018-09-03T08:03:58.359Z,54.31
2018-09-03T08:06:24.323Z,54.25
2018-09-03T08:08:50.275Z,54.63
2018-09-03T08:11:16.247Z,54.90
2018-09-03T08:13:42.230Z,54.21
2018-09-03T08:16:08.265Z,54.43
2018-09-03T08:18:34.286Z,53.91
2018-09-03T08:21:00.547Z,53.52
2018-09-03T08:23:26.535Z,54.12
2018-09-03T08:25:52.476Z,54.35
2018-09-03T08:28:18.420Z,54.15
2018-09-03T08:30:44.372Z,53.37
2018-09-03T08:33:10.350Z,53.86
2018-09-03T08:35:36.364Z,53.74
2018-09-03T08:38:02.301Z,53.89
2018-09-03T08:40:28.257Z,53.92
2018-09-03T08:42:54.220Z,54.68
2018-09-03T08:45:20.184Z,54.34
2018-09-03T08:47:46.135Z,53.94
2018-09-03T08:50:12.118Z,54.24
2018-09-03T08:52:38.131Z,53.57
2018-09-03T08:55:04.080Z,54.22
2018-09-03T08:57:30.026Z,54.20
2018-09-03T08:59:56.193Z,53.59
2018-09-03T09:02:22.248Z,55.15
2018-09-03T09:04:48.204Z,53.38
2018-09-03T09:07:14.168Z,53.84
2018-09-03T09:09:40.227Z,53.76
2018-09-03T09:12:06.183Z,53.62
2018-09-03T09:14:32.151Z,53.92
2018-09-03T09:16:58.106Z,54.13
2018-09-03T09:19:24.073Z,53.93
2018-09-03T09:21:50.021Z,54.23
2018-09-03T09:24:15.992Z,54.01
2018-09-03T09:26:41.938Z,54.28
2018-09-03T09:29:07.904Z,53.73
2018-09-03T09:31:33.853Z,54.70
2018-09-03T09:33:59.799Z,53.87
2018-09-03T09:36:25.760Z,54.76
2018-09-03T09:38:51.708Z,53.83
2018-09-03T09:41:17.685Z,54.32
2018-09-03T09:43:43.639Z,54.20
2018-09-03T09:46:09.600Z,54.67
2018-09-03T09:48:35.549Z,54.04
2018-09-03T09:51:01.505Z,54.65
2018-09-03T09:53:27.454Z,54.07
2018-09-03T09:55:53.409Z,54.72
2018-09-03T09:58:19.347Z,53.85
2018-09-03T10:00:45.293Z,54.38
2018-09-03T10:03:11.268Z,54.40
2018-09-03T10:05:37.207Z,53.89
2018-09-03T10:08:03.188Z,53.94
2018-09-03T10:10:29.152Z,54.93
2018-09-03T10:12:55.100Z,54.58
2018-09-03T10:15:21.054Z,54.73
2018-09-03T10:17:47.005Z,54.66
2018-09-03T10:20:12.966Z,54.61
2018-09-03T10:22:38.920Z,54.13
2018-09-03T10:25:04.877Z,54.71
2018-09-03T10:27:30.820Z,54.42
2018-09-03T10:29:56.867Z,54.61
2018-09-03T10:32:22.912Z,53.89
2018-09-03T10:34:48.892Z,54.73
2018-09-03T10:37:14.867Z,53.90
2018-09-03T10:39:40.832Z,54.87
2018-09-03T10:42:06.784Z,54.76
2018-09-03T10:44:32.745Z,54.65
2018-09-03T10:46:58.726Z,54.82
2018-09-03T10:49:24.660Z,54.95
2018-09-03T10:51:50.635Z,55.07
2018-09-03T10:54:16.576Z,54.70
2018-09-03T10:56:42.526Z,54.94
2018-09-03T10:59:08.471Z,54.72
2018-09-03T11:01:34.437Z,54.84
2018-09-03T11:04:00.518Z,54.63
2018-09-03T11:06:26.481Z,54.19
2018-09-03T11:08:52.444Z,55.23
2018-09-03T11:11:18.394Z,54.84
2018-09-03T11:13:44.347Z,55.64
2018-09-03T11:16:10.411Z,55.38
2018-09-03T11:18:36.360Z,55.25
2018-09-03T11:21:02.375Z,54.51
2018-09-03T11:23:28.261Z,55.24
2018-09-03T11:25:54.213Z,55.07
2018-09-03T11:28:20.245Z,54.65
2018-09-03T11:30:46.212Z,54.24
2018-09-03T11:33:12.227Z,54.25
2018-09-03T11:35:38.168Z,55.08
2018-09-03T11:38:04.147Z,54.38
2018-09-03T11:40:30.112Z,55.15
2018-09-03T11:42:56.072Z,54.40
2018-09-03T11:45:22.012Z,54.59
2018-09-03T11:47:47.964Z,54.75
2018-09-03T11:50:13.920Z,55.27
2018-09-03T11:52:39.887Z,55.08
2018-09-03T11:55:06.004Z,54.63
2018-09-03T11:57:31.984Z,55.48
2018-09-03T11:59:57.935Z,54.83
2018-09-03T12:02:23.891Z,55.05
2018-09-03T12:04:49.857Z,54.14
2018-09-03T12:07:15.904Z,55.03
2018-09-03T12:09:41.854Z,55.45
2018-09-03T12:12:07.812Z,55.28
2018-09-03T12:14:33.757Z,54.76
2018-09-03T12:16:59.755Z,54.56
2018-09-03T12:19:25.708Z,55.05
2018-09-03T12:21:51.670Z,54.62
2018-09-03T12:24:17.688Z,55.82
2018-09-03T12:26:43.655Z,54.90
2018-09-03T12:29:09.589Z,54.54
2018-09-03T12:31:35.531Z,55.66
2018-09-03T12:34:01.480Z,55.72
2018-09-03T12:36:27.449Z,55.75
2018-09-03T12:38:53.447Z,55.84
2018-09-03T12:41:19.400Z,55.33
2018-09-03T12:43:45.388Z,54.77
2018-09-03T12:46:11.347Z,54.40
2018-09-03T12:48:37.311Z,54.89
2018-09-03T12:51:03.316Z,54.38
2018-09-03T12:53:29.252Z,54.69
2018-09-03T12:55:55.235Z,55.24
2018-09-03T12:58:21.184Z,54.53
2018-09-03T13:00:47.173Z,54.56
2018-09-03T13:03:13.197Z,54.69
2018-09-03T13:05:39.172Z,55.03
2018-09-03T13:08:05.117Z,54.47
2018-09-03T13:10:31.068Z,54.62
2018-09-03T13:12:57.099Z,54.88
2018-09-03T13:15:24.102Z,54.64
2018-09-03T13:17:50.051Z,55.65
2018-09-03T13:20:16.045Z,54.78
2018-09-03T13:22:41.992Z,54.58
2018-09-03T13:25:08.025Z,55.38
2018-09-03T13:27:33.974Z,54.47
2018-09-03T13:29:59.916Z,54.82
2018-09-03T13:32:25.895Z,54.90
2018-09-03T13:34:51.851Z,54.66
2018-09-03T13:37:17.824Z,56.15
2018-09-03T13:39:43.798Z,55.78
2018-09-03T13:42:09.851Z,55.77
2018-09-03T13:44:35.776Z,55.82
2018-09-03T13:47:01.758Z,55.22
2018-09-03T13:49:27.700Z,55.75
2018-09-03T13:51:53.668Z,55.65
2018-09-03T13:54:19.617Z,55.47
2018-09-03T13:56:45.620Z,55.84
2018-09-03T13:59:11.511Z,54.64
2018-09-03T14:01:37.479Z,55.99
2018-09-03T14:04:03.411Z,55.18
2018-09-03T14:06:29.373Z,55.88
2018-09-03T14:08:55.324Z,55.19
2018-09-03T14:11:21.288Z,54.91
2018-09-03T14:13:47.224Z,55.23
2018-09-03T14:16:13.198Z,55.77
2018-09-03T14:18:39.155Z,55.05
2018-09-03T14:21:05.119Z,55.80
2018-09-03T14:23:31.096Z,54.88
2018-09-03T14:25:57.071Z,56.51
2018-09-03T14:28:23.037Z,55.98
2018-09-03T14:30:49.027Z,54.94
2018-09-03T14:33:15.006Z,54.96
2018-09-03T14:35:40.968Z,55.79
2018-09-03T14:38:06.919Z,55.72
2018-09-03T14:40:32.975Z,56.38
2018-09-03T14:42:59.006Z,56.26
2018-09-03T14:45:25.045Z,56.70
2018-09-03T14:47:50.942Z,55.61
2018-09-03T14:50:17.020Z,56.01
2018-09-03T14:52:42.973Z,55.02
2018-09-03T14:55:08.921Z,55.59
2018-09-03T14:57:34.869Z,55.10
2018-09-03T15:00:00.825Z,55.33
2018-09-03T15:02:26.852Z,55.62
2018-09-03T15:04:52.971Z,55.59
2018-09-03T15:07:18.943Z,55.76
2018-09-03T15:09:45.061Z,56.18
2018-09-03T15:12:11.012Z,56.04
2018-09-03T15:14:37.095Z,55.55
2018-09-03T15:17:03.092Z,55.30
2018-09-03T15:19:29.075Z,56.15
2018-09-03T15:21:55.019Z,56.19
2018-09-03T15:24:21.008Z,56.51
2018-09-03T15:26:46.984Z,56.71
2018-09-03T15:29:13.045Z,56.36
2018-09-03T15:31:38.993Z,55.46
2018-09-03T15:34:04.936Z,56.38
2018-09-03T15:36:31.034Z,56.43
2018-09-03T15:38:56.891Z,56.60
2018-09-03T15:41:22.849Z,56.52
2018-09-03T15:43:48.842Z,56.59
2018-09-03T15:46:14.835Z,56.76
2018-09-03T15:48:40.811Z,56.14
2018-09-03T15:51:06.785Z,56.52
2018-09-03T15:53:33.042Z,56.42
2018-09-03T15:55:59.000Z,55.48
2018-09-03T15:58:24.961Z,56.11
2018-09-03T16:00:50.924Z,56.31
2018-09-03T16:03:16.913Z,55.91
2018-09-03T16:05:42.896Z,56.66
2018-09-03T16:08:08.858Z,56.12
2018-09-03T16:10:34.823Z,56.45
2018-09-03T16:13:00.786Z,56.16
2018-09-03T16:15:26.752Z,55.95
2018-09-03T16:17:52.830Z,56.44
2018-09-03T16:20:18.907Z,56.76
2018-09-03T16:22:44.864Z,56.56
2018-09-03T16:25:10.869Z,56.52
2018-09-03T16:27:36.834Z,55.58
2018-09-03T16:30:02.791Z,56.34
2018-09-03T16:32:28.740Z,55.76
2018-09-03T16:34:54.725Z,55.79
2018-09-03T16:37:20.692Z,55.49
2018-09-03T16:39:46.751Z,56.96
2018-09-03T16:42:12.743Z,55.96
2018-09-03T16:44:38.698Z,55.86
2018-09-03T16:47:04.651Z,55.81
2018-09-03T16:49:30.721Z,57.40
2018-09-03T16:51:56.676Z,57.53
2018-09-03T16:54:22.616Z,56.65
2018-09-03T16:56:48.584Z,55.86
2018-09-03T16:59:14.548Z,55.99
2018-09-03T17:01:40.506Z,56.79
2018-09-03T17:04:06.508Z,55.50
2018-09-03T17:06:32.461Z,56.80
2018-09-03T17:08:58.438Z,56.77
2018-09-03T17:11:24.404Z,56.55
2018-09-03T17:13:50.461Z,55.99
2018-09-03T17:16:16.479Z,55.95
2018-09-03T17:18:42.449Z,56.15
2018-09-03T17:21:08.427Z,56.43
2018-09-03T17:23:34.388Z,56.54
2018-09-03T17:26:00.375Z,56.06
2018-09-03T17:28:26.470Z,56.16
2018-09-03T17:30:52.511Z,56.66
2018-09-03T17:33:18.469Z,57.90
2018-09-03T17:35:44.424Z,57.00
2018-09-03T17:38:10.380Z,57.17
2018-09-03T17:40:36.331Z,56.33
2018-09-03T17:43:02.327Z,57.05
2018-09-03T17:45:28.304Z,57.02
2018-09-03T17:47:54.332Z,56.29
2018-09-03T17:50:20.300Z,56.47
2018-09-03T17:52:46.263Z,56.75
2018-09-03T17:55:12.233Z,56.99
2018-09-03T17:57:38.218Z,56.23
2018-09-03T18:00:04.167Z,57.23
2018-09-03T18:02:30.130Z,56.43
2018-09-03T18:04:56.107Z,56.36
2018-09-03T18:07:22.157Z,57.13
2018-09-03T18:09:48.132Z,56.80
2018-09-03T18:12:14.116Z,57.62
2018-09-03T18:14:40.101Z,55.76
2018-09-03T18:17:06.052Z,57.68
2018-09-03T18:19:32.060Z,56.43
2018-09-03T18:21:58.092Z,57.46
2018-09-03T18:24:24.052Z,57.10
2018-09-03T18:26:50.007Z,56.47
2018-09-03T18:29:15.989Z,56.07
2018-09-03T18:31:42.050Z,56.92
2018-09-03T18:34:08.016Z,56.28
2018-09-03T18:36:34.198Z,56.25
2018-09-03T18:39:00.251Z,56.11
2018-09-03T18:41:27.111Z,57.13
2018-09-03T18:43:53.087Z,57.00
2018-09-03T18:46:19.059Z,57.12
2018-09-03T18:48:45.194Z,56.49
2018-09-03T18:51:11.190Z,56.80
2018-09-03T18:53:37.253Z,56.34
2018-09-03T18:56:03.481Z,56.77
2018-09-03T18:58:29.921Z,57.83
2018-09-03T19:00:56.266Z,57.37
2018-09-03T19:03:22.599Z,57.14
2018-09-03T19:05:48.615Z,56.85
2018-09-03T19:08:14.959Z,57.19
2018-09-03T19:10:41.295Z,56.93
2018-09-03T19:13:07.597Z,57.60
2018-09-03T19:15:33.600Z,56.82
2018-09-03T19:17:59.899Z,57.72
2018-09-03T19:20:26.440Z,56.77
2018-09-03T19:22:52.889Z,57.09
2018-09-03T19:25:19.206Z,58.33
2018-09-03T19:27:45.550Z,57.37
2018-09-03T19:30:11.944Z,56.81
2018-09-03T19:32:37.953Z,57.92
2018-09-03T19:35:03.904Z,57.13
2018-09-03T19:37:29.861Z,58.26
2018-09-03T19:39:55.846Z,58.06
2018-09-03T19:42:21.918Z,57.50
2018-09-03T19:44:47.893Z,57.98
2018-09-03T19:47:13.885Z,58.05
2018-09-03T19:49:39.840Z,57.54
2018-09-03T19:52:05.860Z,57.82
2018-09-03T19:54:31.784Z,57.73
2018-09-03T19:56:57.741Z,57.42
2018-09-03T19:59:23.692Z,57.40
2018-09-03T20:01:49.664Z,57.22
2018-09-03T20:04:15.643Z,58.36
2018-09-03T20:06:41.634Z,57.41
2018-09-03T20:09:07.570Z,57.77
2018-09-03T20:11:33.540Z,58.10
2018-09-03T20:13:59.574Z,57.14
2018-09-03T20:16:25.607Z,57.46
2018-09-03T20:18:51.571Z,57.94
2018-09-03T20:21:17.528Z,57.71
2018-09-03T20:23:43.752Z,58.45
2018-09-03T20:26:09.603Z,58.55
2018-09-03T20:28:35.591Z,58.23
2018-09-03T20:31:01.550Z,58.32
2018-09-03T20:33:27.496Z,59.04
2018-09-03T20:35:53.452Z,58.40
2018-09-03T20:38:19.436Z,57.17
2018-09-03T20:40:45.378Z,57.62
2018-09-03T20:43:11.356Z,58.42
2018-09-03T20:45:37.303Z,58.50
2018-09-03T20:48:03.247Z,58.59
2018-09-03T20:50:29.213Z,58.76
2018-09-03T20:52:55.180Z,58.56
2018-09-03T20:55:21.135Z,59.10
2018-09-03T20:57:47.084Z,57.92
2018-09-03T21:00:13.265Z,58.99
2018-09-03T21:02:39.408Z,58.79
2018-09-03T21:05:05.364Z,58.78
2018-09-03T21:07:31.392Z,59.69
2018-09-03T21:09:57.347Z,59.60
2018-09-03T21:12:23.316Z,60.00
2018-09-03T21:14:49.262Z,60.77
2018-09-03T21:17:15.265Z,60.24
2018-09-03T21:19:41.225Z,60.45
2018-09-03T21:22:07.209Z,61.19
2018-09-03T21:24:33.159Z,60.04
2018-09-03T21:26:59.112Z,59.96
2018-09-03T21:29:25.076Z,60.21
2018-09-03T21:31:51.037Z,59.79
2018-09-03T21:34:17.025Z,60.35
2018-09-03T21:36:42.973Z,60.42
2018-09-03T21:39:08.922Z,60.80
2018-09-03T21:41:34.868Z,61.26
2018-09-03T21:44:00.824Z,61.64
2018-09-03T21:46:26.895Z,61.14
2018-09-03T21:48:53.112Z,61.27
2018-09-03T21:51:19.096Z,61.45
2018-09-03T21:53:45.111Z,60.29
2018-09-03T21:56:11.078Z,61.16
2018-09-03T21:58:37.123Z,60.43
2018-09-03T22:01:03.087Z,61.10
2018-09-03T22:03:29.035Z,60.58
2018-09-03T22:05:54.943Z,61.03
2018-09-03T22:08:20.974Z,60.85
2018-09-03T22:10:46.915Z,59.97
2018-09-03T22:13:12.873Z,60.00
2018-09-03T22:15:38.855Z,60.14
2018-09-03T22:18:04.815Z,60.23
2018-09-03T22:20:30.767Z,59.79
2018-09-03T22:22:56.716Z,60.92
2018-09-03T22:25:22.679Z,60.71
2018-09-03T22:27:49.012Z,60.20
2018-09-03T22:30:14.952Z,60.55
2018-09-03T22:32:40.912Z,60.20
2018-09-03T22:35:06.901Z,59.51
2018-09-03T22:37:32.868Z,59.71
2018-09-03T22:39:58.817Z,60.47
2018-09-03T22:42:24.851Z,60.61
2018-09-03T22:44:50.801Z,59.23
2018-09-03T22:47:16.748Z,59.71
2018-09-03T22:49:42.749Z,60.49
2018-09-03T22:52:08.706Z,60.22
2018-09-03T22:54:34.664Z,59.00
2018-09-03T22:57:00.607Z,59.71
2018-09-03T22:59:26.639Z,60.01
2018-09-03T23:01:52.600Z,60.64
2018-09-03T23:04:18.625Z,60.46
2018-09-03T23:06:44.650Z,60.73
2018-09-03T23:09:10.675Z,60.99
2018-09-03T23:11:36.718Z,60.83
2018-09-03T23:14:02.784Z,59.71
2018-09-03T23:16:28.743Z,60.60
2018-09-03T23:18:54.701Z,60.03
2018-09-03T23:21:20.656Z,60.38
2018-09-03T23:23:46.720Z,59.35
2018-09-03T23:26:12.679Z,60.30
2018-09-03T23:28:38.699Z,60.36
2018-09-03T23:31:04.657Z,60.79
2018-09-03T23:33:30.595Z,60.68
2018-09-03T23:35:56.564Z,60.34
2018-09-03T23:38:22.535Z,60.07
2018-09-03T23:40:48.521Z,60.42
2018-09-03T23:43:14.469Z,60.27
2018-09-03T23:45:40.635Z,60.91
2018-09-03T23:48:06.586Z,60.47
2018-09-03T23:50:32.539Z,60.52
2018-09-03T23:52:58.541Z,60.87
2018-09-03T23:55:24.496Z,60.75
2018-09-03T23:57:50.461Z,60.45
